BOD weather

Bordeaux-Mérignac Airport
Bordeaux/Mérignac, Nouvelle-Aquitaine, France

Public forecast

Using degrees Celsius for public forecast. Weather courtesy of forecast.io.

Current aviation weather report (METAR) for Bordeaux-Mérignac Airport

Retrieved 2019/11/17 23:30 UTC (24 minutes ago):

LFBD 172330Z AUTO 36004KT 7000 FEW038 OVC046 05/04 Q1010 NOSIG

Aviation forecast (TAF) for Bordeaux-Mérignac Airport

Retrieved 2019/11/17 18:21 UTC (6 hours ago):

TAF LFBD 171700Z 1718/1824 04005KT 9999 BKN010 TX09/1814Z TN02/1803Z TEMPO 1718/1721 4000 -RADZ OVC005 BECMG 1721/1724 4000 BR PROB40 1800/1808 0500 FG VV/// BECMG 1808/1810 9999 NSW BECMG 1810/1812 BKN015 BECMG 1818/1820 VRB02KT PROB40 1820/1824 3000 BR